sensor_id;sensor_type;location;lat;lon;timestamp;temperature;humidity
22379;DHT22;11357;49.990;7.370;2023-01-19T00:02:14;2.40;83.60
22379;DHT22;11357;49.990;7.370;2023-01-19T00:04:39;2.40;83.60
22379;DHT22;11357;49.990;7.370;2023-01-19T00:07:05;2.50;83.60
22379;DHT22;11357;49.990;7.370;2023-01-19T00:09:31;2.50;83.60
22379;DHT22;11357;49.990;7.370;2023-01-19T00:11:58;2.50;83.70
22379;DHT22;11357;49.990;7.370;2023-01-19T00:14:24;2.50;83.70
22379;DHT22;11357;49.990;7.370;2023-01-19T00:16:49;2.50;83.70
22379;DHT22;11357;49.990;7.370;2023-01-19T00:19:15;2.50;83.70
22379;DHT22;11357;49.990;7.370;2023-01-19T00:21:41;2.50;83.70
22379;DHT22;11357;49.990;7.370;2023-01-19T00:24:06;2.50;83.80
22379;DHT22;11357;49.990;7.370;2023-01-19T00:26:32;2.60;83.80
22379;DHT22;11357;49.990;7.370;2023-01-19T00:28:58;2.60;83.80
22379;DHT22;11357;49.990;7.370;2023-01-19T00:31:23;2.60;83.90
22379;DHT22;11357;49.990;7.370;2023-01-19T00:33:49;2.60;83.90
22379;DHT22;11357;49.990;7.370;2023-01-19T00:36:17;2.70;83.90
22379;DHT22;11357;49.990;7.370;2023-01-19T00:38:43;2.70;83.90
22379;DHT22;11357;49.990;7.370;2023-01-19T00:41:09;2.70;83.90
22379;DHT22;11357;49.990;7.370;2023-01-19T00:43:34;2.80;83.90
22379;DHT22;11357;49.990;7.370;2023-01-19T00:46:00;2.80;83.90
22379;DHT22;11357;49.990;7.370;2023-01-19T00:48:26;2.80;83.90
22379;DHT22;11357;49.990;7.370;2023-01-19T00:50:51;2.80;83.90
22379;DHT22;11357;49.990;7.370;2023-01-19T00:53:17;2.80;84.00
22379;DHT22;11357;49.990;7.370;2023-01-19T00:55:42;2.80;84.10
22379;DHT22;11357;49.990;7.370;2023-01-19T00:58:08;2.80;84.20
22379;DHT22;11357;49.990;7.370;2023-01-19T01:00:34;2.80;84.20
22379;DHT22;11357;49.990;7.370;2023-01-19T01:02:59;2.80;84.20
22379;DHT22;11357;49.990;7.370;2023-01-19T01:05:25;2.90;84.30
22379;DHT22;11357;49.990;7.370;2023-01-19T01:07:51;2.90;84.40
22379;DHT22;11357;49.990;7.370;2023-01-19T01:10:25;2.90;84.70
22379;DHT22;11357;49.990;7.370;2023-01-19T01:12:51;2.80;84.90
22379;DHT22;11357;49.990;7.370;2023-01-19T01:15:17;2.90;85.10
22379;DHT22;11357;49.990;7.370;2023-01-19T01:17:43;2.90;85.30
22379;DHT22;11357;49.990;7.370;2023-01-19T01:20:29;3.00;85.40
22379;DHT22;11357;49.990;7.370;2023-01-19T01:22:58;3.00;85.70
22379;DHT22;11357;49.990;7.370;2023-01-19T01:25:25;3.00;85.60
22379;DHT22;11357;49.990;7.370;2023-01-19T01:27:51;3.10;85.70
22379;DHT22;11357;49.990;7.370;2023-01-19T01:30:17;3.10;85.80
22379;DHT22;11357;49.990;7.370;2023-01-19T01:32:43;3.10;85.90
22379;DHT22;11357;49.990;7.370;2023-01-19T01:35:09;3.10;86.00
22379;DHT22;11357;49.990;7.370;2023-01-19T01:37:36;3.20;86.20
22379;DHT22;11357;49.990;7.370;2023-01-19T01:40:03;3.20;86.20
22379;DHT22;11357;49.990;7.370;2023-01-19T01:42:30;3.30;86.20
22379;DHT22;11357;49.990;7.370;2023-01-19T01:44:58;3.30;86.10
22379;DHT22;11357;49.990;7.370;2023-01-19T01:47:31;3.40;86.10
22379;DHT22;11357;49.990;7.370;2023-01-19T01:52:49;3.40;86.30
22379;DHT22;11357;49.990;7.370;2023-01-19T01:55:17;3.40;86.20
22379;DHT22;11357;49.990;7.370;2023-01-19T01:57:49;3.50;86.30
22379;DHT22;11357;49.990;7.370;2023-01-19T02:00:16;3.50;86.20
22379;DHT22;11357;49.990;7.370;2023-01-19T02:02:42;3.50;86.20
22379;DHT22;11357;49.990;7.370;2023-01-19T02:05:26;3.60;86.30
22379;DHT22;11357;49.990;7.370;2023-01-19T02:08:19;3.60;86.30
22379;DHT22;11357;49.990;7.370;2023-01-19T02:11:08;3.50;86.50
22379;DHT22;11357;49.990;7.370;2023-01-19T02:13:52;3.50;86.50
22379;DHT22;11357;49.990;7.370;2023-01-19T02:16:18;3.50;86.60
22379;DHT22;11357;49.990;7.370;2023-01-19T02:18:44;3.50;86.70
22379;DHT22;11357;49.990;7.370;2023-01-19T02:23:52;3.50;87.00
22379;DHT22;11357;49.990;7.370;2023-01-19T02:26:24;3.60;87.00
22379;DHT22;11357;49.990;7.370;2023-01-19T02:31:25;3.60;87.00
22379;DHT22;11357;49.990;7.370;2023-01-19T02:33:51;3.60;87.00
22379;DHT22;11357;49.990;7.370;2023-01-19T02:36:21;3.70;87.00
22379;DHT22;11357;49.990;7.370;2023-01-19T02:38:48;3.70;87.10
22379;DHT22;11357;49.990;7.370;2023-01-19T02:41:18;3.70;87.00
22379;DHT22;11357;49.990;7.370;2023-01-19T02:43:47;3.70;87.00
22379;DHT22;11357;49.990;7.370;2023-01-19T02:46:14;3.80;87.10
22379;DHT22;11357;49.990;7.370;2023-01-19T02:48:40;3.80;87.00
22379;DHT22;11357;49.990;7.370;2023-01-19T02:51:23;3.80;86.90
22379;DHT22;11357;49.990;7.370;2023-01-19T02:54:08;3.80;87.00
22379;DHT22;11357;49.990;7.370;2023-01-19T03:02:41;3.80;87.00
22379;DHT22;11357;49.990;7.370;2023-01-19T03:10:57;3.80;87.30
22379;DHT22;11357;49.990;7.370;2023-01-19T03:16:10;3.80;87.30
22379;DHT22;11357;49.990;7.370;2023-01-19T03:18:39;3.80;87.40
22379;DHT22;11357;49.990;7.370;2023-01-19T03:21:08;3.80;88.00
22379;DHT22;11357;49.990;7.370;2023-01-19T03:23:39;3.80;87.40
22379;DHT22;11357;49.990;7.370;2023-01-19T03:26:10;3.90;87.40
22379;DHT22;11357;49.990;7.370;2023-01-19T03:28:38;3.90;87.40
22379;DHT22;11357;49.990;7.370;2023-01-19T03:31:14;3.90;87.30
22379;DHT22;11357;49.990;7.370;2023-01-19T03:33:44;3.90;87.30
22379;DHT22;11357;49.990;7.370;2023-01-19T03:36:21;3.90;87.40
22379;DHT22;11357;49.990;7.370;2023-01-19T03:38:49;3.80;87.40
22379;DHT22;11357;49.990;7.370;2023-01-19T03:41:17;3.80;87.60
22379;DHT22;11357;49.990;7.370;2023-01-19T03:43:43;3.70;87.80
22379;DHT22;11357;49.990;7.370;2023-01-19T03:46:12;3.80;88.00
22379;DHT22;11357;49.990;7.370;2023-01-19T03:48:42;3.70;88.00
22379;DHT22;11357;49.990;7.370;2023-01-19T03:51:09;3.80;88.00
22379;DHT22;11357;49.990;7.370;2023-01-19T03:53:35;3.80;87.90
22379;DHT22;11357;49.990;7.370;2023-01-19T03:56:01;3.80;88.50
22379;DHT22;11357;49.990;7.370;2023-01-19T03:58:27;3.90;87.80
22379;DHT22;11357;49.990;7.370;2023-01-19T04:00:53;3.90;87.80
22379;DHT22;11357;49.990;7.370;2023-01-19T04:03:18;3.90;87.80
22379;DHT22;11357;49.990;7.370;2023-01-19T04:05:45;3.90;87.80
22379;DHT22;11357;49.990;7.370;2023-01-19T04:08:11;3.90;87.80
22379;DHT22;11357;49.990;7.370;2023-01-19T04:10:37;4.00;87.70
22379;DHT22;11357;49.990;7.370;2023-01-19T04:13:04;4.00;87.70
22379;DHT22;11357;49.990;7.370;2023-01-19T04:15:30;4.00;87.70
22379;DHT22;11357;49.990;7.370;2023-01-19T04:17:57;4.00;87.70
22379;DHT22;11357;49.990;7.370;2023-01-19T04:20:23;4.00;87.70
22379;DHT22;11357;49.990;7.370;2023-01-19T04:22:51;3.90;87.80
22379;DHT22;11357;49.990;7.370;2023-01-19T04:25:17;3.90;87.80
22379;DHT22;11357;49.990;7.370;2023-01-19T04:27:42;3.90;87.80
22379;DHT22;11357;49.990;7.370;2023-01-19T04:30:08;3.90;87.90
22379;DHT22;11357;49.990;7.370;2023-01-19T04:32:34;3.90;87.90
22379;DHT22;11357;49.990;7.370;2023-01-19T04:35:00;3.90;87.90
22379;DHT22;11357;49.990;7.370;2023-01-19T04:37:26;3.90;87.90
22379;DHT22;11357;49.990;7.370;2023-01-19T04:39:52;3.90;87.90
22379;DHT22;11357;49.990;7.370;2023-01-19T04:42:17;3.90;87.90
22379;DHT22;11357;49.990;7.370;2023-01-19T04:44:43;3.90;88.00
22379;DHT22;11357;49.990;7.370;2023-01-19T04:47:09;3.90;88.00
22379;DHT22;11357;49.990;7.370;2023-01-19T04:49:34;3.90;88.10
22379;DHT22;11357;49.990;7.370;2023-01-19T04:52:06;3.90;88.00
22379;DHT22;11357;49.990;7.370;2023-01-19T04:54:31;3.90;88.10
22379;DHT22;11357;49.990;7.370;2023-01-19T04:56:57;3.90;88.10
22379;DHT22;11357;49.990;7.370;2023-01-19T04:59:23;3.90;88.10
22379;DHT22;11357;49.990;7.370;2023-01-19T05:01:48;3.90;88.10
22379;DHT22;11357;49.990;7.370;2023-01-19T05:04:14;3.90;88.20
22379;DHT22;11357;49.990;7.370;2023-01-19T05:06:40;3.90;88.20
22379;DHT22;11357;49.990;7.370;2023-01-19T05:09:05;3.90;89.00
22379;DHT22;11357;49.990;7.370;2023-01-19T05:11:34;3.90;88.30
22379;DHT22;11357;49.990;7.370;2023-01-19T05:13:59;3.90;88.40
22379;DHT22;11357;49.990;7.370;2023-01-19T05:16:25;3.90;88.50
22379;DHT22;11357;49.990;7.370;2023-01-19T05:18:51;3.90;88.60
22379;DHT22;11357;49.990;7.370;2023-01-19T05:21:17;3.90;88.70
22379;DHT22;11357;49.990;7.370;2023-01-19T05:23:42;3.90;88.70
22379;DHT22;11357;49.990;7.370;2023-01-19T05:26:08;3.90;88.70
22379;DHT22;11357;49.990;7.370;2023-01-19T05:28:34;3.90;88.60
22379;DHT22;11357;49.990;7.370;2023-01-19T05:31:00;4.00;88.50
22379;DHT22;11357;49.990;7.370;2023-01-19T05:33:25;4.00;88.50
22379;DHT22;11357;49.990;7.370;2023-01-19T05:35:52;4.00;88.40
22379;DHT22;11357;49.990;7.370;2023-01-19T05:38:19;4.00;88.50
22379;DHT22;11357;49.990;7.370;2023-01-19T05:40:45;3.90;88.40
22379;DHT22;11357;49.990;7.370;2023-01-19T05:43:11;3.90;88.60
22379;DHT22;11357;49.990;7.370;2023-01-19T05:45:37;3.90;88.60
22379;DHT22;11357;49.990;7.370;2023-01-19T05:48:07;3.90;88.60
22379;DHT22;11357;49.990;7.370;2023-01-19T05:50:33;3.90;88.50
22379;DHT22;11357;49.990;7.370;2023-01-19T05:53:00;3.90;88.40
22379;DHT22;11357;49.990;7.370;2023-01-19T05:55:27;3.90;89.20
22379;DHT22;11357;49.990;7.370;2023-01-19T05:57:52;3.90;88.60
22379;DHT22;11357;49.990;7.370;2023-01-19T06:00:18;3.90;88.50
22379;DHT22;11357;49.990;7.370;2023-01-19T06:02:44;3.90;88.60
22379;DHT22;11357;49.990;7.370;2023-01-19T06:05:12;4.00;88.60
22379;DHT22;11357;49.990;7.370;2023-01-19T06:07:38;4.00;88.50
22379;DHT22;11357;49.990;7.370;2023-01-19T06:10:04;4.00;88.40
22379;DHT22;11357;49.990;7.370;2023-01-19T06:12:30;4.00;88.30
22379;DHT22;11357;49.990;7.370;2023-01-19T06:14:57;4.00;88.30
22379;DHT22;11357;49.990;7.370;2023-01-19T06:17:22;3.90;88.20
22379;DHT22;11357;49.990;7.370;2023-01-19T06:19:48;4.00;88.40
22379;DHT22;11357;49.990;7.370;2023-01-19T06:22:13;4.00;88.30
22379;DHT22;11357;49.990;7.370;2023-01-19T06:24:39;4.00;88.20
22379;DHT22;11357;49.990;7.370;2023-01-19T06:27:05;4.00;88.20
22379;DHT22;11357;49.990;7.370;2023-01-19T06:29:31;4.00;88.10
22379;DHT22;11357;49.990;7.370;2023-01-19T06:31:56;4.00;88.00
22379;DHT22;11357;49.990;7.370;2023-01-19T06:34:22;4.00;88.00
22379;DHT22;11357;49.990;7.370;2023-01-19T06:36:56;4.00;88.10
22379;DHT22;11357;49.990;7.370;2023-01-19T06:39:22;4.00;88.10
22379;DHT22;11357;49.990;7.370;2023-01-19T06:41:48;4.00;88.10
22379;DHT22;11357;49.990;7.370;2023-01-19T06:44:13;4.00;88.10
22379;DHT22;11357;49.990;7.370;2023-01-19T06:46:39;4.00;88.10
22379;DHT22;11357;49.990;7.370;2023-01-19T06:49:05;3.90;88.00
22379;DHT22;11357;49.990;7.370;2023-01-19T06:51:30;3.90;88.10
22379;DHT22;11357;49.990;7.370;2023-01-19T06:53:56;3.90;88.10
22379;DHT22;11357;49.990;7.370;2023-01-19T06:56:22;3.90;88.10
22379;DHT22;11357;49.990;7.370;2023-01-19T06:58:48;3.80;88.20
22379;DHT22;11357;49.990;7.370;2023-01-19T07:01:16;3.80;88.20
22379;DHT22;11357;49.990;7.370;2023-01-19T07:03:41;3.80;88.20
22379;DHT22;11357;49.990;7.370;2023-01-19T07:06:07;3.70;88.10
22379;DHT22;11357;49.990;7.370;2023-01-19T07:08:34;3.70;88.00
22379;DHT22;11357;49.990;7.370;2023-01-19T07:11:01;3.60;88.10
22379;DHT22;11357;49.990;7.370;2023-01-19T07:13:29;3.60;88.00
22379;DHT22;11357;49.990;7.370;2023-01-19T07:15:55;3.60;88.00
22379;DHT22;11357;49.990;7.370;2023-01-19T07:18:20;3.60;87.90
22379;DHT22;11357;49.990;7.370;2023-01-19T07:20:46;3.60;87.80
22379;DHT22;11357;49.990;7.370;2023-01-19T07:23:14;3.60;87.80
22379;DHT22;11357;49.990;7.370;2023-01-19T07:25:40;3.60;87.60
22379;DHT22;11357;49.990;7.370;2023-01-19T07:28:06;3.60;87.50
22379;DHT22;11357;49.990;7.370;2023-01-19T07:30:31;3.60;87.50
22379;DHT22;11357;49.990;7.370;2023-01-19T07:32:57;3.50;87.40
22379;DHT22;11357;49.990;7.370;2023-01-19T07:35:26;3.50;87.30
22379;DHT22;11357;49.990;7.370;2023-01-19T07:37:53;3.50;87.20
22379;DHT22;11357;49.990;7.370;2023-01-19T07:40:19;3.50;87.20
22379;DHT22;11357;49.990;7.370;2023-01-19T07:42:48;3.40;87.10
22379;DHT22;11357;49.990;7.370;2023-01-19T07:45:19;3.40;87.00
22379;DHT22;11357;49.990;7.370;2023-01-19T07:47:46;3.40;87.00
22379;DHT22;11357;49.990;7.370;2023-01-19T07:50:15;3.40;86.90
22379;DHT22;11357;49.990;7.370;2023-01-19T07:52:41;3.50;86.90
22379;DHT22;11357;49.990;7.370;2023-01-19T07:55:08;3.50;86.80
22379;DHT22;11357;49.990;7.370;2023-01-19T07:57:34;3.50;86.60
22379;DHT22;11357;49.990;7.370;2023-01-19T08:00:00;3.60;86.70
22379;DHT22;11357;49.990;7.370;2023-01-19T08:02:26;3.60;86.60
22379;DHT22;11357;49.990;7.370;2023-01-19T08:04:51;3.60;86.60
22379;DHT22;11357;49.990;7.370;2023-01-19T08:07:17;3.70;86.70
22379;DHT22;11357;49.990;7.370;2023-01-19T08:09:43;3.80;86.70
22379;DHT22;11357;49.990;7.370;2023-01-19T08:12:08;3.90;86.70
22379;DHT22;11357;49.990;7.370;2023-01-19T08:14:34;3.90;86.50
22379;DHT22;11357;49.990;7.370;2023-01-19T08:17:01;4.00;86.50
22379;DHT22;11357;49.990;7.370;2023-01-19T08:19:27;4.00;86.40
22379;DHT22;11357;49.990;7.370;2023-01-19T08:21:53;4.00;86.50
22379;DHT22;11357;49.990;7.370;2023-01-19T08:24:20;4.00;86.60
22379;DHT22;11357;49.990;7.370;2023-01-19T08:26:47;4.00;86.70
22379;DHT22;11357;49.990;7.370;2023-01-19T08:29:13;4.00;86.70
22379;DHT22;11357;49.990;7.370;2023-01-19T08:31:39;4.00;86.70
22379;DHT22;11357;49.990;7.370;2023-01-19T08:34:06;4.10;86.90
22379;DHT22;11357;49.990;7.370;2023-01-19T08:36:32;4.10;86.70
22379;DHT22;11357;49.990;7.370;2023-01-19T08:38:58;4.10;86.80
22379;DHT22;11357;49.990;7.370;2023-01-19T08:41:24;4.20;86.80
22379;DHT22;11357;49.990;7.370;2023-01-19T08:43:50;4.20;86.80
22379;DHT22;11357;49.990;7.370;2023-01-19T08:46:16;4.30;86.80
22379;DHT22;11357;49.990;7.370;2023-01-19T08:48:43;4.30;86.80
22379;DHT22;11357;49.990;7.370;2023-01-19T08:51:10;4.40;86.70
22379;DHT22;11357;49.990;7.370;2023-01-19T08:53:37;4.50;86.70
22379;DHT22;11357;49.990;7.370;2023-01-19T08:56:03;4.60;86.50
22379;DHT22;11357;49.990;7.370;2023-01-19T08:58:28;4.60;86.50
22379;DHT22;11357;49.990;7.370;2023-01-19T09:00:54;4.60;86.40
22379;DHT22;11357;49.990;7.370;2023-01-19T09:03:20;4.70;86.30
22379;DHT22;11357;49.990;7.370;2023-01-19T09:05:47;4.60;86.10
22379;DHT22;11357;49.990;7.370;2023-01-19T09:08:13;4.60;86.00
22379;DHT22;11357;49.990;7.370;2023-01-19T09:10:49;4.60;86.20
22379;DHT22;11357;49.990;7.370;2023-01-19T09:13:16;4.60;86.20
22379;DHT22;11357;49.990;7.370;2023-01-19T09:15:43;4.70;86.20
22379;DHT22;11357;49.990;7.370;2023-01-19T09:18:11;4.80;86.00
22379;DHT22;11357;49.990;7.370;2023-01-19T09:20:42;4.80;85.90
22379;DHT22;11357;49.990;7.370;2023-01-19T09:23:09;4.90;85.80
22379;DHT22;11357;49.990;7.370;2023-01-19T09:25:39;5.00;85.80
22379;DHT22;11357;49.990;7.370;2023-01-19T09:28:05;5.00;85.70
22379;DHT22;11357;49.990;7.370;2023-01-19T09:30:32;5.00;85.40
22379;DHT22;11357;49.990;7.370;2023-01-19T09:33:03;5.10;85.20
22379;DHT22;11357;49.990;7.370;2023-01-19T09:35:31;5.00;85.90
22379;DHT22;11357;49.990;7.370;2023-01-19T09:37:57;5.00;85.20
22379;DHT22;11357;49.990;7.370;2023-01-19T09:40:23;5.00;85.20
22379;DHT22;11357;49.990;7.370;2023-01-19T09:42:54;5.00;85.10
22379;DHT22;11357;49.990;7.370;2023-01-19T09:45:35;4.90;85.20
22379;DHT22;11357;49.990;7.370;2023-01-19T09:48:19;4.90;85.20
22379;DHT22;11357;49.990;7.370;2023-01-19T09:50:47;4.90;85.30
22379;DHT22;11357;49.990;7.370;2023-01-19T09:53:23;4.90;85.10
22379;DHT22;11357;49.990;7.370;2023-01-19T09:55:52;4.90;85.20
22379;DHT22;11357;49.990;7.370;2023-01-19T09:58:18;4.90;85.10
22379;DHT22;11357;49.990;7.370;2023-01-19T10:00:51;4.90;85.10
22379;DHT22;11357;49.990;7.370;2023-01-19T10:03:20;5.00;85.10
22379;DHT22;11357;49.990;7.370;2023-01-19T10:10:54;5.00;85.20
22379;DHT22;11357;49.990;7.370;2023-01-19T10:19:01;5.20;84.90
22379;DHT22;11357;49.990;7.370;2023-01-19T10:21:30;5.20;84.60
22379;DHT22;11357;49.990;7.370;2023-01-19T10:24:13;5.30;84.50
22379;DHT22;11357;49.990;7.370;2023-01-19T10:32:02;5.70;83.50
22379;DHT22;11357;49.990;7.370;2023-01-19T10:34:29;5.70;83.30
22379;DHT22;11357;49.990;7.370;2023-01-19T10:37:01;5.80;83.10
22379;DHT22;11357;49.990;7.370;2023-01-19T10:39:28;5.80;82.90
22379;DHT22;11357;49.990;7.370;2023-01-19T10:41:56;6.00;82.80
22379;DHT22;11357;49.990;7.370;2023-01-19T10:44:43;6.10;82.60
22379;DHT22;11357;49.990;7.370;2023-01-19T10:47:19;6.10;82.20
22379;DHT22;11357;49.990;7.370;2023-01-19T10:49:47;6.10;81.80
22379;DHT22;11357;49.990;7.370;2023-01-19T10:52:36;6.10;81.50
22379;DHT22;11357;49.990;7.370;2023-01-19T10:55:06;6.00;81.40
22379;DHT22;11357;49.990;7.370;2023-01-19T10:57:37;6.00;81.40
22379;DHT22;11357;49.990;7.370;2023-01-19T11:00:13;5.90;81.20
22379;DHT22;11357;49.990;7.370;2023-01-19T11:02:51;5.80;81.10
22379;DHT22;11357;49.990;7.370;2023-01-19T11:05:28;5.80;81.10
22379;DHT22;11357;49.990;7.370;2023-01-19T11:07:54;5.80;81.30
22379;DHT22;11357;49.990;7.370;2023-01-19T11:10:24;5.80;81.30
22379;DHT22;11357;49.990;7.370;2023-01-19T11:13:11;5.80;80.90
22379;DHT22;11357;49.990;7.370;2023-01-19T11:15:44;5.80;81.00
22379;DHT22;11357;49.990;7.370;2023-01-19T11:18:26;5.90;80.90
22379;DHT22;11357;49.990;7.370;2023-01-19T11:20:54;5.80;80.80
22379;DHT22;11357;49.990;7.370;2023-01-19T11:23:39;5.80;80.60
22379;DHT22;11357;49.990;7.370;2023-01-19T11:26:13;5.70;80.70
22379;DHT22;11357;49.990;7.370;2023-01-19T11:28:47;5.60;80.80
22379;DHT22;11357;49.990;7.370;2023-01-19T11:36:17;5.50;81.00
22379;DHT22;11357;49.990;7.370;2023-01-19T11:38:46;5.50;80.90
22379;DHT22;11357;49.990;7.370;2023-01-19T11:41:35;5.50;81.00
22379;DHT22;11357;49.990;7.370;2023-01-19T11:44:29;5.40;81.10
22379;DHT22;11357;49.990;7.370;2023-01-19T11:46:59;5.50;81.10
22379;DHT22;11357;49.990;7.370;2023-01-19T11:52:36;5.50;81.10
22379;DHT22;11357;49.990;7.370;2023-01-19T11:55:24;5.60;81.30
22379;DHT22;11357;49.990;7.370;2023-01-19T11:57:53;5.70;81.30
22379;DHT22;11357;49.990;7.370;2023-01-19T12:00:41;5.80;81.10
22379;DHT22;11357;49.990;7.370;2023-01-19T12:03:16;6.00;81.00
22379;DHT22;11357;49.990;7.370;2023-01-19T12:08:15;6.10;80.70
22379;DHT22;11357;49.990;7.370;2023-01-19T12:10:44;6.10;80.70
22379;DHT22;11357;49.990;7.370;2023-01-19T12:13:37;6.20;80.60
22379;DHT22;11357;49.990;7.370;2023-01-19T12:18:41;6.20;80.60
22379;DHT22;11357;49.990;7.370;2023-01-19T12:21:08;6.20;80.60
22379;DHT22;11357;49.990;7.370;2023-01-19T12:28:46;6.20;80.60
22379;DHT22;11357;49.990;7.370;2023-01-19T12:31:20;6.20;80.40
22379;DHT22;11357;49.990;7.370;2023-01-19T12:33:46;6.20;80.50
22379;DHT22;11357;49.990;7.370;2023-01-19T12:39:00;6.20;80.40
22379;DHT22;11357;49.990;7.370;2023-01-19T12:41:34;6.30;80.30
22379;DHT22;11357;49.990;7.370;2023-01-19T12:46:50;6.40;79.90
22379;DHT22;11357;49.990;7.370;2023-01-19T12:52:27;6.50;79.80
22379;DHT22;11357;49.990;7.370;2023-01-19T12:57:37;6.50;79.50
22379;DHT22;11357;49.990;7.370;2023-01-19T13:03:00;6.60;79.70
22379;DHT22;11357;49.990;7.370;2023-01-19T13:13:19;6.70;79.30
22379;DHT22;11357;49.990;7.370;2023-01-19T13:15:45;6.70;79.30
22379;DHT22;11357;49.990;7.370;2023-01-19T13:18:31;6.70;79.20
22379;DHT22;11357;49.990;7.370;2023-01-19T13:21:02;6.70;79.20
22379;DHT22;11357;49.990;7.370;2023-01-19T13:26:21;6.90;79.10
22379;DHT22;11357;49.990;7.370;2023-01-19T13:28:54;6.90;78.90
22379;DHT22;11357;49.990;7.370;2023-01-19T13:31:20;7.00;78.60
22379;DHT22;11357;49.990;7.370;2023-01-19T13:38:56;6.90;78.30
22379;DHT22;11357;49.990;7.370;2023-01-19T13:41:26;6.90;78.30
22379;DHT22;11357;49.990;7.370;2023-01-19T13:44:07;6.80;78.40
22379;DHT22;11357;49.990;7.370;2023-01-19T13:46:37;6.80;78.50
22379;DHT22;11357;49.990;7.370;2023-01-19T13:49:18;6.80;78.50
22379;DHT22;11357;49.990;7.370;2023-01-19T13:52:00;6.80;78.50
22379;DHT22;11357;49.990;7.370;2023-01-19T13:54:27;6.80;78.40
22379;DHT22;11357;49.990;7.370;2023-01-19T13:56:53;6.80;78.30
22379;DHT22;11357;49.990;7.370;2023-01-19T13:59:19;6.90;78.30
22379;DHT22;11357;49.990;7.370;2023-01-19T14:01:45;7.00;78.10
22379;DHT22;11357;49.990;7.370;2023-01-19T14:06:50;6.90;77.70
22379;DHT22;11357;49.990;7.370;2023-01-19T14:09:20;6.90;77.90
22379;DHT22;11357;49.990;7.370;2023-01-19T14:12:08;7.00;77.90
22379;DHT22;11357;49.990;7.370;2023-01-19T14:14:35;7.00;77.90
22379;DHT22;11357;49.990;7.370;2023-01-19T14:17:01;7.10;77.60
22379;DHT22;11357;49.990;7.370;2023-01-19T14:19:26;7.10;77.70
22379;DHT22;11357;49.990;7.370;2023-01-19T14:22:02;7.20;77.60
22379;DHT22;11357;49.990;7.370;2023-01-19T14:24:28;7.20;77.60
22379;DHT22;11357;49.990;7.370;2023-01-19T14:27:25;7.30;77.50
22379;DHT22;11357;49.990;7.370;2023-01-19T14:29:51;7.30;77.60
22379;DHT22;11357;49.990;7.370;2023-01-19T14:32:44;7.30;77.40
22379;DHT22;11357;49.990;7.370;2023-01-19T14:35:12;7.30;77.40
22379;DHT22;11357;49.990;7.370;2023-01-19T14:37:45;7.30;77.40
22379;DHT22;11357;49.990;7.370;2023-01-19T14:42:53;7.30;77.40
22379;DHT22;11357;49.990;7.370;2023-01-19T14:45:33;7.20;77.20
22379;DHT22;11357;49.990;7.370;2023-01-19T14:48:03;7.10;77.10
22379;DHT22;11357;49.990;7.370;2023-01-19T14:50:34;7.00;77.20
22379;DHT22;11357;49.990;7.370;2023-01-19T14:53:15;6.80;77.30
22379;DHT22;11357;49.990;7.370;2023-01-19T14:55:47;6.60;77.40
22379;DHT22;11357;49.990;7.370;2023-01-19T14:58:18;6.50;77.60
22379;DHT22;11357;49.990;7.370;2023-01-19T15:00:45;6.50;77.70
22379;DHT22;11357;49.990;7.370;2023-01-19T15:03:10;6.40;77.80
22379;DHT22;11357;49.990;7.370;2023-01-19T15:05:37;6.40;78.00
22379;DHT22;11357;49.990;7.370;2023-01-19T15:08:04;6.30;78.10
22379;DHT22;11357;49.990;7.370;2023-01-19T15:10:30;6.30;78.30
22379;DHT22;11357;49.990;7.370;2023-01-19T15:12:56;6.20;78.20
22379;DHT22;11357;49.990;7.370;2023-01-19T15:15:27;6.10;78.20
22379;DHT22;11357;49.990;7.370;2023-01-19T15:17:53;6.00;78.40
22379;DHT22;11357;49.990;7.370;2023-01-19T15:20:21;6.00;78.50
22379;DHT22;11357;49.990;7.370;2023-01-19T15:22:47;5.90;78.50
22379;DHT22;11357;49.990;7.370;2023-01-19T15:25:17;5.90;78.60
22379;DHT22;11357;49.990;7.370;2023-01-19T15:27:44;5.80;78.50
22379;DHT22;11357;49.990;7.370;2023-01-19T15:30:14;5.70;78.50
22379;DHT22;11357;49.990;7.370;2023-01-19T15:32:40;5.60;78.70
22379;DHT22;11357;49.990;7.370;2023-01-19T15:35:19;5.50;78.80
22379;DHT22;11357;49.990;7.370;2023-01-19T15:37:45;5.40;78.90
22379;DHT22;11357;49.990;7.370;2023-01-19T15:40:11;5.40;78.90
22379;DHT22;11357;49.990;7.370;2023-01-19T15:42:38;5.30;79.00
22379;DHT22;11357;49.990;7.370;2023-01-19T15:47:52;5.20;79.20
22379;DHT22;11357;49.990;7.370;2023-01-19T15:50:17;5.20;79.20
22379;DHT22;11357;49.990;7.370;2023-01-19T15:52:44;5.10;79.30
22379;DHT22;11357;49.990;7.370;2023-01-19T15:55:11;5.10;79.30
22379;DHT22;11357;49.990;7.370;2023-01-19T15:57:37;5.00;79.30
22379;DHT22;11357;49.990;7.370;2023-01-19T16:00:04;5.00;79.50
22379;DHT22;11357;49.990;7.370;2023-01-19T16:02:29;4.90;79.60
22379;DHT22;11357;49.990;7.370;2023-01-19T16:04:55;4.80;79.90
22379;DHT22;11357;49.990;7.370;2023-01-19T16:07:20;4.80;79.70
22379;DHT22;11357;49.990;7.370;2023-01-19T16:09:46;4.70;79.80
22379;DHT22;11357;49.990;7.370;2023-01-19T16:12:12;4.60;79.90
22379;DHT22;11357;49.990;7.370;2023-01-19T16:14:38;4.60;80.00
22379;DHT22;11357;49.990;7.370;2023-01-19T16:17:03;4.60;80.10
22379;DHT22;11357;49.990;7.370;2023-01-19T16:19:30;4.50;80.20
22379;DHT22;11357;49.990;7.370;2023-01-19T16:21:55;4.50;80.20
22379;DHT22;11357;49.990;7.370;2023-01-19T16:24:21;4.50;80.40
22379;DHT22;11357;49.990;7.370;2023-01-19T16:26:47;4.40;80.30
22379;DHT22;11357;49.990;7.370;2023-01-19T16:29:13;4.30;80.30
22379;DHT22;11357;49.990;7.370;2023-01-19T16:31:40;4.30;80.50
22379;DHT22;11357;49.990;7.370;2023-01-19T16:34:07;4.20;80.50
22379;DHT22;11357;49.990;7.370;2023-01-19T16:36:35;4.20;80.70
22379;DHT22;11357;49.990;7.370;2023-01-19T16:39:06;4.10;80.80
22379;DHT22;11357;49.990;7.370;2023-01-19T16:41:33;4.00;81.00
22379;DHT22;11357;49.990;7.370;2023-01-19T16:43:59;4.00;81.20
22379;DHT22;11357;49.990;7.370;2023-01-19T16:46:30;4.00;81.30
22379;DHT22;11357;49.990;7.370;2023-01-19T16:49:00;4.00;81.40
22379;DHT22;11357;49.990;7.370;2023-01-19T16:51:26;4.00;81.40
22379;DHT22;11357;49.990;7.370;2023-01-19T16:53:52;3.90;81.40
22379;DHT22;11357;49.990;7.370;2023-01-19T16:56:17;3.90;81.50
22379;DHT22;11357;49.990;7.370;2023-01-19T16:58:43;3.80;81.60
22379;DHT22;11357;49.990;7.370;2023-01-19T17:01:14;3.80;81.70
22379;DHT22;11357;49.990;7.370;2023-01-19T17:03:41;3.80;81.80
22379;DHT22;11357;49.990;7.370;2023-01-19T17:06:09;3.80;81.80
22379;DHT22;11357;49.990;7.370;2023-01-19T17:08:35;3.80;81.80
22379;DHT22;11357;49.990;7.370;2023-01-19T17:11:11;3.80;81.80
22379;DHT22;11357;49.990;7.370;2023-01-19T17:13:37;3.80;81.80
22379;DHT22;11357;49.990;7.370;2023-01-19T17:16:04;3.80;81.80
22379;DHT22;11357;49.990;7.370;2023-01-19T17:18:35;3.70;81.80
22379;DHT22;11357;49.990;7.370;2023-01-19T17:21:04;3.70;81.90
22379;DHT22;11357;49.990;7.370;2023-01-19T17:23:30;3.70;81.90
22379;DHT22;11357;49.990;7.370;2023-01-19T17:25:57;3.70;81.90
22379;DHT22;11357;49.990;7.370;2023-01-19T17:28:24;3.60;82.00
22379;DHT22;11357;49.990;7.370;2023-01-19T17:30:50;3.60;82.20